Huvudsida
METAR-TAF:

METAR-TAF

Flygplatser :

Abha, Saudiarabien

latitud: 18-14N, longitud: 042-39E, höjd: 2090 m

Aktuellt väderrapport

Denna rapport gjordes för 1 timme och 10 minuter sedan, klockan 18:00 UTC
Vind 4 kt från väst/sydväst
Temperatur 18°C
Fuktighet 32%
Tryck 1024 hPa
Sikt 10 km eller mer
Inga moln under 1 500 m eller inga cumulonimbus

METAR: OEAB 281800Z 24004KT CAVOK 18/01 Q1024 NOSIG

Tid: 22:10 (19:10 UTC)

Väderprognos

Denna rapport gjordes för 8 timmar och 10 minuter sedan, klockan 11:00 UTC
Prognos gäller från 28 kl. 12 UTC till 29 kl. 18 UTC
Vind 12 kt från sydväst
Sikt: 7000 m
Få moln på en höjd av 2000 ft
Temporärt
från 28 kl. 12 UTC till 28 kl. 20 UTC
Sikt: 4000 m
utbrett stoft

TAF: OEAB 281100Z 2812/2918 22012KT 7000 FEW020 TEMPO 2812/2820 4000 DU

Aktuella väderrapporter och prognoser från 4000 flygplatser (METAR- och TAF-rapporter).

De tillgängliga stationerna syns som gula och röda prickar på kartan.

För musen över prickarna för att se namnen på stationerna.

Klicka sedan för att få väderrapporter och prognoser.

För att ändra kartan: Klicka på de gröna knapparna med ett svart kors på för att zooma in; den gröna knappen med ett streck på för att zooma ut; eller på de gröna pilarna för angränsande kartor.


METAR-TAF: